Time;durP1;ratioP1;P1;durP2;ratioP2;P2;SDS_P1;SDS_P2;PMS_P1;PMS_P2;Temp;Humidity;BMP_temperature;BMP_pressure;BME280_temperature;BME280_humidity;BME280_pressure;Samples;Min_cycle;Max_cycle;Signal;HPM_P1;HPM_P2
2023/08/20 00:01:27;;;;;;;13.00;7.50;;;;;;;22.38;nan;61906.44;5032380;28;20168;-70
2023/08/20 00:03:53;;;;;;;13.40;8.02;;;;;;;22.33;nan;61883.13;5032459;28;20226;-70
2023/08/20 00:06:20;;;;;;;13.45;8.18;;;;;;;22.37;nan;61876.66;5031952;28;20195;-70
2023/08/20 00:08:46;;;;;;;13.40;7.63;;;;;;;22.30;nan;62118.63;5031801;28;20226;-70
2023/08/20 00:11:13;;;;;;;10.55;6.85;;;;;;;22.26;nan;61879.78;5032531;28;20183;-70
2023/08/20 00:13:38;;;;;;;11.68;7.47;;;;;;;22.26;nan;61858.97;5032356;28;20555;-69
2023/08/20 00:16:04;;;;;;;13.75;8.27;;;;;;;22.22;nan;61925.28;5031700;28;20202;-69
2023/08/20 00:18:30;;;;;;;11.43;7.20;;;;;;;22.09;nan;61944.34;5031759;28;20194;-70
2023/08/20 00:20:56;;;;;;;13.32;7.10;;;;;;;22.27;nan;61977.25;5032231;28;20171;-70
2023/08/20 00:23:22;;;;;;;14.05;7.82;;;;;;;22.33;nan;61843.50;5031891;28;20657;-70
2023/08/20 00:25:48;;;;;;;12.63;8.00;;;;;;;22.27;nan;62016.28;5032014;28;20179;-70
2023/08/20 00:28:13;;;;;;;12.27;7.40;;;;;;;22.20;nan;61865.16;5032133;28;20210;-70
2023/08/20 00:30:39;;;;;;;12.63;7.93;;;;;;;22.10;nan;61864.22;5031904;28;20250;-71
2023/08/20 00:33:04;;;;;;;12.52;7.68;;;;;;;22.14;nan;61976.03;5032358;28;20207;-71
2023/08/20 00:35:30;;;;;;;12.93;7.22;;;;;;;22.15;nan;61895.94;5031719;28;20556;-71
2023/08/20 00:37:55;;;;;;;14.80;7.97;;;;;;;22.11;nan;61847.13;5031929;28;20180;-71
2023/08/20 00:40:20;;;;;;;12.27;7.47;;;;;;;21.94;nan;61852.38;5031817;28;20171;-71
2023/08/20 00:42:46;;;;;;;14.15;8.23;;;;;;;21.82;nan;61754.94;5030726;28;20176;-71
2023/08/20 00:45:12;;;;;;;13.32;8.00;;;;;;;21.98;nan;62087.94;5031449;28;20163;-68
2023/08/20 00:47:38;;;;;;;12.25;7.88;;;;;;;21.98;nan;61869.38;5031719;28;20258;-71
2023/08/20 00:50:09;;;;;;;12.57;7.47;;;;;;;21.83;nan;61888.72;5031786;28;20167;-69
2023/08/20 00:52:35;;;;;;;15.18;7.80;;;;;;;21.87;nan;61799.63;5031808;28;20199;-69
2023/08/20 00:55:12;;;;;;;13.90;7.93;;;;;;;21.62;nan;61929.88;5031479;28;20176;-69
2023/08/20 00:57:38;;;;;;;12.63;7.63;;;;;;;21.79;nan;61790.53;5031591;28;20184;-70
2023/08/20 01:00:08;;;;;;;13.85;8.10;;;;;;;21.49;nan;61816.88;5031570;28;20647;-69
2023/08/20 01:02:34;;;;;;;14.35;8.75;;;;;;;21.61;nan;61916.31;5031622;28;20616;-70
2023/08/20 01:05:01;;;;;;;12.13;7.90;;;;;;;21.49;nan;61757.63;5031532;28;20259;-69
2023/08/20 01:07:44;;;;;;;13.00;8.18;;;;;;;21.52;nan;61916.47;5031402;28;20314;-70
2023/08/20 01:10:31;;;;;;;13.30;7.60;;;;;;;21.52;nan;61818.25;5031687;28;20547;-70
2023/08/20 01:12:57;;;;;;;15.85;8.32;;;;;;;21.46;nan;61899.81;5031699;28;20205;-70
2023/08/20 01:15:24;;;;;;;17.40;9.80;;;;;;;21.40;nan;61762.47;5030002;28;20190;-70
2023/08/20 01:17:50;;;;;;;14.68;8.73;;;;;;;21.14;nan;61689.91;5031294;28;20240;-70
2023/08/20 01:20:16;;;;;;;13.43;8.32;;;;;;;21.14;nan;61827.63;5031449;28;20163;-70
2023/08/20 01:23:18;;;;;;;13.75;8.27;;;;;;;21.30;nan;61837.44;5031118;28;20641;-70
2023/08/20 01:26:05;;;;;;;14.82;8.43;;;;;;;21.18;nan;61789.47;5031635;28;20159;-70
2023/08/20 01:28:31;;;;;;;14.48;8.25;;;;;;;20.96;nan;61866.91;5031554;28;20168;-70
2023/08/20 01:30:58;;;;;;;17.10;8.80;;;;;;;21.04;nan;61675.97;5030028;28;20673;-70
2023/08/20 01:33:24;;;;;;;13.68;8.73;;;;;;;20.87;nan;61721.06;5031206;28;20195;-70
2023/08/20 01:35:51;;;;;;;15.15;9.15;;;;;;;21.05;nan;61720.69;5031301;28;20179;-70
2023/08/20 01:38:16;;;;;;;13.57;8.43;;;;;;;20.98;nan;61752.28;5031488;28;20546;-70
2023/08/20 01:40:42;;;;;;;14.13;8.27;;;;;;;20.87;nan;61778.78;5034001;28;20164;-70
2023/08/20 01:43:08;;;;;;;13.07;8.40;;;;;;;20.80;nan;61796.22;5039611;28;20211;-70
2023/08/20 01:45:33;;;;;;;18.05;8.38;;;;;;;20.97;nan;61720.00;5031054;28;20160;-70
2023/08/20 01:47:59;;;;;;;15.90;8.52;;;;;;;20.79;nan;61678.22;5031311;28;20704;-70
2023/08/20 01:50:24;;;;;;;13.68;8.45;;;;;;;20.75;nan;61808.72;5030980;28;20172;-70
2023/08/20 01:52:49;;;;;;;14.48;8.82;;;;;;;20.84;nan;61715.63;5031186;28;20264;-70
2023/08/20 01:55:15;;;;;;;14.38;8.50;;;;;;;20.83;nan;61698.34;5034994;28;20180;-70
2023/08/20 01:57:40;;;;;;;14.55;8.38;;;;;;;20.85;nan;61698.59;5034820;28;20682;-70
2023/08/20 02:00:07;;;;;;;19.15;8.88;;;;;;;20.89;nan;61676.59;5034904;28;20174;-70
2023/08/20 02:02:32;;;;;;;13.80;8.80;;;;;;;20.75;nan;61658.13;5034658;28;20186;-70
2023/08/20 02:04:58;;;;;;;15.57;9.02;;;;;;;20.70;nan;61673.78;5034986;28;20250;-70
2023/08/20 02:07:23;;;;;;;14.68;8.88;;;;;;;20.83;nan;61756.06;5032453;28;20230;-70
2023/08/20 02:09:49;;;;;;;14.30;9.20;;;;;;;20.61;nan;61572.72;5034375;28;20211;-70
2023/08/20 02:12:14;;;;;;;15.48;8.80;;;;;;;20.77;nan;61699.31;5034340;28;20206;-70
2023/08/20 02:14:40;;;;;;;14.73;9.50;;;;;;;20.72;nan;61718.16;5034251;28;20168;-70
2023/08/20 02:17:06;;;;;;;13.60;8.68;;;;;;;20.57;nan;61710.97;5034307;28;20179;-70
2023/08/20 02:19:32;;;;;;;14.07;8.27;;;;;;;20.66;nan;61669.25;5034699;28;20180;-70
2023/08/20 02:21:57;;;;;;;15.65;9.77;;;;;;;20.65;nan;61696.69;5034541;28;20171;-70
2023/08/20 02:24:23;;;;;;;15.18;9.15;;;;;;;20.80;nan;61793.63;5034305;28;20183;-70
2023/08/20 02:26:48;;;;;;;13.95;9.05;;;;;;;20.75;nan;61756.78;5034298;28;20258;-70
2023/08/20 02:29:14;;;;;;;14.95;8.60;;;;;;;20.76;nan;61750.16;5034088;28;20182;-70
2023/08/20 02:31:39;;;;;;;13.25;8.55;;;;;;;20.69;nan;61734.97;5033898;28;20335;-70
2023/08/20 02:34:05;;;;;;;15.38;8.48;;;;;;;20.61;nan;61783.00;5033400;28;20179;-70
2023/08/20 02:36:30;;;;;;;14.90;8.57;;;;;;;20.37;nan;61657.16;5033963;28;20654;-70
2023/08/20 02:38:56;;;;;;;13.75;8.20;;;;;;;20.52;nan;61674.72;5034103;28;20168;-71
2023/08/20 02:41:21;;;;;;;15.00;9.32;;;;;;;20.43;nan;61778.16;5033716;28;20183;-71
2023/08/20 02:43:47;;;;;;;16.38;8.95;;;;;;;15.71;nan;63166.97;5033834;28;20176;-70
2023/08/20 02:46:13;;;;;;;14.02;8.65;;;;;;;20.53;nan;61670.66;5033658;28;20613;-71
2023/08/20 02:48:39;;;;;;;15.32;8.75;;;;;;;20.48;nan;61820.16;5034104;28;20174;-71
2023/08/20 02:51:04;;;;;;;12.63;8.25;;;;;;;20.36;nan;61755.19;5033498;28;20259;-70
2023/08/20 02:53:29;;;;;;;15.00;8.60;;;;;;;20.49;nan;61701.88;5033489;28;20205;-70
2023/08/20 02:55:56;;;;;;;13.48;8.38;;;;;;;20.56;nan;61790.31;5033733;28;20262;-71
2023/08/20 02:58:21;;;;;;;15.52;8.18;;;;;;;20.53;nan;61880.91;5033424;28;20225;-70
2023/08/20 03:00:47;;;;;;;14.05;8.10;;;;;;;20.54;nan;61679.56;5032966;28;20187;-71
2023/08/20 03:03:12;;;;;;;18.40;9.15;;;;;;;20.56;nan;61697.44;5025856;28;20266;-70
2023/08/20 03:05:38;;;;;;;13.98;8.35;;;;;;;20.44;nan;61781.88;5032610;28;20176;-71
2023/08/20 03:08:04;;;;;;;13.82;8.43;;;;;;;20.47;nan;61700.19;5033352;28;20241;-71
2023/08/20 03:10:31;;;;;;;14.32;8.32;;;;;;;20.57;nan;61685.03;5033411;28;20167;-71
2023/08/20 03:12:56;;;;;;;16.00;8.88;;;;;;;20.58;nan;61717.28;5033280;28;20282;-70
2023/08/20 03:15:22;;;;;;;15.05;8.50;;;;;;;20.63;nan;61824.78;5031986;28;20240;-70
2023/08/20 03:17:47;;;;;;;15.00;7.93;;;;;;;20.33;nan;61603.31;5033240;28;20171;-70
2023/08/20 03:20:13;;;;;;;17.90;8.45;;;;;;;20.57;nan;61760.31;5033545;28;20258;-70
2023/08/20 03:22:38;;;;;;;14.55;8.48;;;;;;;20.36;nan;61578.16;5032127;28;20189;-70
2023/08/20 03:25:05;;;;;;;15.55;8.35;;;;;;;20.54;nan;61616.72;5033171;28;20237;-70
2023/08/20 03:27:30;;;;;;;13.05;8.30;;;;;;;20.38;nan;61686.84;5032178;28;20210;-70
2023/08/20 03:29:56;;;;;;;13.20;7.53;;;;;;;20.46;nan;61662.72;5032990;28;20554;-70
2023/08/20 03:32:22;;;;;;;14.48;7.38;;;;;;;20.45;nan;61689.56;5033153;28;20256;-70
2023/08/20 03:34:47;;;;;;;12.63;7.18;;;;;;;20.47;nan;61813.84;5033072;28;20654;-70
2023/08/20 03:37:13;;;;;;;11.07;6.88;;;;;;;20.48;nan;61690.97;5031695;28;20175;-70
2023/08/20 03:39:38;;;;;;;12.27;7.18;;;;;;;20.50;nan;61923.66;5032820;28;20607;-71
2023/08/20 03:42:04;;;;;;;11.70;6.55;;;;;;;20.56;nan;61670.91;5032712;28;20183;-70
2023/08/20 03:44:30;;;;;;;13.50;7.05;;;;;;;20.50;nan;61760.13;5032500;28;20177;-70
2023/08/20 03:46:56;;;;;;;11.07;6.80;;;;;;;20.53;nan;61797.31;5033120;28;20172;-71
2023/08/20 03:49:22;;;;;;;11.10;6.78;;;;;;;20.73;nan;61827.78;5033107;28;20186;-70
2023/08/20 03:51:47;;;;;;;13.05;7.22;;;;;;;21.07;nan;61866.44;5032479;28;20207;-70
2023/08/20 03:54:13;;;;;;;9.75;6.78;;;;;;;21.23;nan;61868.47;5032400;28;20179;-70
2023/08/20 03:56:38;;;;;;;11.27;6.25;;;;;;;21.42;nan;61739.28;5031198;28;20268;-70
2023/08/20 03:59:04;;;;;;;10.98;6.72;;;;;;;21.41;nan;61898.78;5032108;28;20661;-69
2023/08/20 04:01:29;;;;;;;9.00;6.10;;;;;;;21.28;nan;61832.00;5032480;28;20183;-70
2023/08/20 04:03:55;;;;;;;10.18;6.43;;;;;;;21.25;nan;61719.44;5032344;28;20639;-70
2023/08/20 04:06:20;;;;;;;14.07;6.15;;;;;;;21.25;nan;61769.41;5032717;28;20171;-70
2023/08/20 04:08:45;;;;;;;9.50;6.20;;;;;;;21.27;nan;61756.06;5039370;28;20242;-70
2023/08/20 04:11:11;;;;;;;11.60;6.35;;;;;;;21.30;nan;61793.25;5044346;28;20171;-70
2023/08/20 04:13:37;;;;;;;8.27;5.47;;;;;;;21.67;nan;61813.91;5038513;28;20288;-70
2023/08/20 04:16:02;;;;;;;10.93;6.40;;;;;;;21.46;nan;61925.81;5031969;28;20256;-70
2023/08/20 04:18:28;;;;;;;13.38;6.20;;;;;;;21.45;nan;61732.31;5031956;28;20183;-70
2023/08/20 04:20:54;;;;;;;10.65;6.00;;;;;;;21.46;nan;61790.06;5032154;28;20203;-70
2023/08/20 04:23:20;;;;;;;10.88;6.47;;;;;;;21.48;nan;61722.69;5032027;28;20179;-70
2023/08/20 04:25:45;;;;;;;10.90;6.78;;;;;;;22.00;nan;61832.63;5032272;28;20170;-70
2023/08/20 04:28:12;;;;;;;13.50;7.18;;;;;;;21.74;nan;61790.63;5031815;28;20175;-70
2023/08/20 04:30:38;;;;;;;11.98;6.95;;;;;;;21.65;nan;61785.63;5032361;28;20171;-70
2023/08/20 04:33:04;;;;;;;12.25;6.93;;;;;;;21.73;nan;61924.75;5031932;28;20202;-70
2023/08/20 04:35:29;;;;;;;10.07;6.72;;;;;;;21.71;nan;61852.25;5030757;28;20211;-70
2023/08/20 04:37:54;;;;;;;11.30;6.95;;;;;;;21.33;nan;61889.66;5031716;28;20310;-70
2023/08/20 04:40:20;;;;;;;10.70;6.28;;;;;;;21.66;nan;62020.81;5031610;28;20174;-70
2023/08/20 04:42:45;;;;;;;13.98;7.35;;;;;;;21.76;nan;61880.78;5031353;28;20186;-70
2023/08/20 04:45:11;;;;;;;11.85;6.70;;;;;;;21.78;nan;61867.44;5031862;28;20270;-70
2023/08/20 04:47:37;;;;;;;13.70;7.00;;;;;;;21.91;nan;61825.53;5032125;28;20198;-70
2023/08/20 04:50:03;;;;;;;9.93;6.50;;;;;;;21.87;nan;61802.22;5031563;28;20566;-70
2023/08/20 04:52:28;;;;;;;9.45;6.45;;;;;;;22.20;nan;61914.59;5031438;28;20693;-70
2023/08/20 04:54:54;;;;;;;9.80;7.00;;;;;;;22.33;nan;62013.28;5031862;28;20182;-70
2023/08/20 04:57:19;;;;;;;11.88;6.72;;;;;;;22.31;nan;61880.84;5031504;28;20174;-71
2023/08/20 04:59:45;;;;;;;12.38;6.30;;;;;;;22.41;nan;62021.81;5031711;28;20258;-70
2023/08/20 05:02:14;;;;;;;11.07;6.65;;;;;;;22.52;nan;61995.25;5031810;28;20163;-71
2023/08/20 05:04:39;;;;;;;13.90;7.13;;;;;;;22.61;nan;61919.53;5031541;28;20175;-70
2023/08/20 05:07:05;;;;;;;10.20;6.70;;;;;;;22.32;nan;62027.19;5031619;28;20167;-70
2023/08/20 05:09:30;;;;;;;10.20;6.70;;;;;;;22.36;nan;61975.03;5031386;28;20213;-70
2023/08/20 05:11:56;;;;;;;14.43;7.72;;;;;;;22.54;nan;61916.25;4835779;28;20900;-71
2023/08/20 05:14:21;;;;;;;10.93;7.00;;;;;;;22.58;nan;62038.56;4593107;28;20550;-70
2023/08/20 05:16:47;;;;;;;12.95;7.75;;;;;;;22.87;nan;62011.69;5031717;28;20237;-70
2023/08/20 05:19:12;;;;;;;9.52;6.75;;;;;;;23.08;nan;62047.44;5031542;28;20175;-70
2023/08/20 05:21:37;;;;;;;10.13;6.43;;;;;;;23.18;nan;62092.72;5031428;28;20723;-70
2023/08/20 05:24:03;;;;;;;10.32;6.28;;;;;;;23.39;nan;62043.66;5031349;28;20660;-70
2023/08/20 05:26:29;;;;;;;9.77;6.50;;;;;;;23.52;nan;62029.75;5031066;28;20167;-70
2023/08/20 05:28:54;;;;;;;10.05;6.35;;;;;;;23.45;nan;61948.19;5033552;28;20229;-70
2023/08/20 05:31:20;;;;;;;11.57;6.88;;;;;;;23.83;nan;62296.75;5036455;28;20263;-70
2023/08/20 05:33:45;;;;;;;12.32;6.43;;;;;;;23.92;nan;62131.56;5034947;28;20203;-70
2023/08/20 05:36:10;;;;;;;12.32;7.20;;;;;;;23.84;nan;62203.34;5035211;28;20171;-69
2023/08/20 05:38:36;;;;;;;11.23;7.18;;;;;;;24.14;nan;62167.06;5033591;28;20270;-70
2023/08/20 05:41:01;;;;;;;13.23;7.90;;;;;;;24.25;nan;62364.50;5035312;28;20178;-69
2023/08/20 05:43:26;;;;;;;13.32;7.45;;;;;;;24.22;nan;62107.75;5035460;28;20175;-69
2023/08/20 05:45:52;;;;;;;12.20;6.72;;;;;;;24.41;nan;62241.72;5035250;28;20178;-69
2023/08/20 05:48:17;;;;;;;11.55;7.10;;;;;;;24.57;nan;62257.91;5035028;28;20659;-70
2023/08/20 05:50:42;;;;;;;15.63;7.43;;;;;;;24.58;nan;62263.72;5034772;28;20174;-70
2023/08/20 05:53:08;;;;;;;12.27;7.70;;;;;;;24.81;nan;62247.56;5034516;28;20248;-70
2023/08/20 05:55:34;;;;;;;13.48;7.10;;;;;;;24.61;nan;62173.63;5034641;28;20538;-70
2023/08/20 05:57:59;;;;;;;10.32;6.70;;;;;;;24.72;nan;62289.56;5034707;28;20651;-70
2023/08/20 06:00:24;;;;;;;10.57;7.13;;;;;;;24.84;nan;62237.91;5034363;28;20647;-70
2023/08/20 06:02:50;;;;;;;10.85;7.35;;;;;;;24.83;nan;62192.34;5034780;28;20211;-69
2023/08/20 06:05:15;;;;;;;11.15;6.88;;;;;;;19.92;nan;62969.00;5034810;28;20627;-70
2023/08/20 06:07:41;;;;;;;10.95;7.22;;;;;;;25.58;nan;62486.69;5034421;28;20223;-70
2023/08/20 06:10:07;;;;;;;15.48;7.97;;;;;;;25.70;nan;62444.88;5034187;28;20167;-70
2023/08/20 06:12:33;;;;;;;12.02;7.55;;;;;;;26.08;nan;62475.22;5034058;28;20199;-70
2023/08/20 06:14:58;;;;;;;11.27;7.13;;;;;;;26.11;nan;62354.97;5034626;28;20178;-70
2023/08/20 06:17:23;;;;;;;10.32;6.82;;;;;;;26.25;nan;62512.47;5034547;28;20172;-70
2023/08/20 06:19:49;;;;;;;13.27;7.25;;;;;;;26.41;nan;62446.31;5034023;28;20202;-70
2023/08/20 06:22:14;;;;;;;11.98;6.97;;;;;;;26.76;nan;62547.22;5033721;28;20182;-70
2023/08/20 06:24:39;;;;;;;13.07;6.88;;;;;;;26.99;nan;62510.03;5034508;28;20258;-70
2023/08/20 06:27:05;;;;;;;10.57;6.75;;;;;;;27.18;nan;62576.38;5034401;28;20538;-70
2023/08/20 06:29:31;;;;;;;11.27;7.18;;;;;;;27.51;nan;62697.63;5034171;28;20171;-70
2023/08/20 06:31:56;;;;;;;10.63;6.85;;;;;;;27.61;nan;62632.91;5033802;28;20195;-70
2023/08/20 06:34:22;;;;;;;10.43;6.90;;;;;;;27.85;nan;62683.44;5033798;28;20650;-70
2023/08/20 06:36:47;;;;;;;12.75;7.20;;;;;;;27.77;nan;62615.94;5042026;28;20480;-70
2023/08/20 06:39:15;;;;;;;10.63;6.85;;;;;;;27.79;nan;62791.59;5037216;28;20262;-70
2023/08/20 06:41:41;;;;;;;12.02;6.68;;;;;;;28.13;nan;62688.13;5032602;28;20566;-70
2023/08/20 06:44:06;;;;;;;12.13;6.75;;;;;;;28.09;nan;62589.50;5034266;28;20168;-70
2023/08/20 06:46:32;;;;;;;11.32;7.00;;;;;;;28.17;nan;62617.06;5033682;28;20204;-71
2023/08/20 06:48:57;;;;;;;9.75;6.55;;;;;;;28.44;nan;62671.03;5033318;28;20186;-70
2023/08/20 06:51:23;;;;;;;9.63;5.75;;;;;;;28.29;nan;62659.16;5033791;28;20175;-69
2023/08/20 06:53:49;;;;;;;10.65;6.63;;;;;;;28.61;nan;62745.78;5033074;28;20622;-69
2023/08/20 06:56:15;;;;;;;12.25;6.32;;;;;;;27.86;nan;62658.34;5033528;28;20221;-69
2023/08/20 06:58:43;;;;;;;8.27;6.25;;;;;;;27.52;nan;62601.59;5033273;28;20167;-70
2023/08/20 07:01:08;;;;;;;10.02;6.28;;;;;;;27.26;nan;62629.56;5033583;28;20635;-70
2023/08/20 07:03:35;;;;;;;9.82;6.05;;;;;;;27.54;nan;62592.81;5033438;28;20171;-70
2023/08/20 07:06:01;;;;;;;11.15;6.53;;;;;;;27.69;nan;62730.81;5033183;28;20517;-69
2023/08/20 07:08:26;;;;;;;11.65;5.75;;;;;;;27.76;nan;62783.47;5033101;28;20226;-69
2023/08/20 07:10:52;;;;;;;12.18;6.88;;;;;;;28.06;nan;62707.53;5033014;28;20170;-70
2023/08/20 07:13:17;;;;;;;9.07;6.25;;;;;;;27.97;nan;62707.72;5033142;28;20202;-70
2023/08/20 07:15:43;;;;;;;10.07;6.55;;;;;;;28.03;nan;62766.56;5033124;28;20668;-70
2023/08/20 07:18:08;;;;;;;10.77;6.82;;;;;;;28.16;nan;62550.22;5031401;28;20190;-70
2023/08/20 07:20:33;;;;;;;10.80;7.15;;;;;;;28.30;nan;62821.22;5033172;28;20182;-70
2023/08/20 07:22:59;;;;;;;9.50;6.68;;;;;;;28.48;nan;62694.06;5032997;28;20218;-70
2023/08/20 07:25:24;;;;;;;11.25;6.75;;;;;;;28.60;nan;62857.16;5032696;28;20167;-69
2023/08/20 07:27:50;;;;;;;9.30;6.65;;;;;;;28.20;nan;62790.78;5031949;28;20194;-69
2023/08/20 07:30:16;;;;;;;10.38;6.55;;;;;;;28.45;nan;62832.63;5033061;28;20183;-69
2023/08/20 07:32:42;;;;;;;9.20;6.57;;;;;;;28.65;nan;62968.69;5032789;28;20199;-69
2023/08/20 07:35:08;;;;;;;10.00;6.82;;;;;;;28.62;nan;62891.59;5032886;28;20179;-69
2023/08/20 07:37:34;;;;;;;9.30;6.10;;;;;;;28.98;nan;62879.75;5032713;28;20175;-70
2023/08/20 07:39:59;;;;;;;10.05;6.10;;;;;;;29.09;nan;62902.91;5032516;28;20178;-70
2023/08/20 07:42:24;;;;;;;12.02;6.57;;;;;;;29.20;nan;62899.75;5032556;28;20619;-69
2023/08/20 07:44:50;;;;;;;9.82;6.68;;;;;;;29.04;nan;62907.13;5032628;28;20172;-69
2023/08/20 07:47:15;;;;;;;9.60;6.18;;;;;;;28.74;nan;62808.03;5032546;28;20167;-69
2023/08/20 07:49:40;;;;;;;10.85;6.65;;;;;;;28.98;nan;62737.63;5032456;28;20277;-69
2023/08/20 07:52:06;;;;;;;11.52;6.47;;;;;;;28.91;nan;62743.31;5031822;28;20554;-71
2023/08/20 07:54:31;;;;;;;10.05;6.60;;;;;;;29.06;nan;62820.50;5032322;28;20232;-70
2023/08/20 07:56:57;;;;;;;8.65;6.15;;;;;;;29.16;nan;62965.66;5032354;28;20681;-70
2023/08/20 07:59:22;;;;;;;8.57;5.80;;;;;;;29.49;nan;62893.00;5032664;28;20171;-70
2023/08/20 08:01:48;;;;;;;18.27;6.43;;;;;;;29.53;nan;62865.97;5032591;28;20167;-70
2023/08/20 08:04:13;;;;;;;9.00;6.13;;;;;;;29.68;nan;62941.16;5032392;28;20549;-70
2023/08/20 08:06:39;;;;;;;10.60;6.20;;;;;;;29.71;nan;63004.63;5032207;28;20175;-70
2023/08/20 08:09:40;;;;;;;10.88;6.57;;;;;;;30.28;nan;63022.72;5032364;28;20313;-70
2023/08/20 08:12:05;;;;;;;8.20;5.75;;;;;;;30.18;nan;63103.53;5029924;28;20202;-71
2023/08/20 08:14:31;;;;;;;8.55;6.28;;;;;;;30.43;nan;62986.63;5031396;28;20577;-70
2023/08/20 08:16:56;;;;;;;8.95;6.15;;;;;;;30.55;nan;63040.03;5031896;28;20185;-71
2023/08/20 08:19:22;;;;;;;9.15;6.25;;;;;;;30.62;nan;63163.59;5030269;28;20187;-70
2023/08/20 08:21:48;;;;;;;7.90;5.72;;;;;;;30.76;nan;63197.63;5032010;28;20186;-71
2023/08/20 08:24:14;;;;;;;9.55;5.63;;;;;;;30.53;nan;63203.38;5032398;28;20183;-70
2023/08/20 08:26:40;;;;;;;9.90;5.90;;;;;;;30.32;nan;63227.22;5031880;28;20179;-70
2023/08/20 08:29:07;;;;;;;8.73;5.97;;;;;;;30.44;nan;63051.09;5031699;28;20646;-70
2023/08/20 08:31:33;;;;;;;8.48;5.88;;;;;;;30.45;nan;62920.34;5031699;28;20194;-70
2023/08/20 08:33:59;;;;;;;7.85;5.40;;;;;;;30.79;nan;63119.25;5031610;28;20174;-71
2023/08/20 08:36:24;;;;;;;8.13;5.68;;;;;;;31.23;nan;63216.91;5032269;28;20193;-70
2023/08/20 08:38:50;;;;;;;8.38;5.57;;;;;;;31.48;nan;63258.94;5031873;28;20198;-71
2023/08/20 08:41:16;;;;;;;7.45;5.20;;;;;;;31.63;nan;63273.59;5030166;28;20179;-70
2023/08/20 08:43:41;;;;;;;8.20;5.25;;;;;;;31.28;nan;63241.72;5031608;28;20170;-70
2023/08/20 08:46:15;;;;;;;7.88;5.18;;;;;;;31.78;nan;63267.06;5031650;28;20189;-70
2023/08/20 08:48:42;;;;;;;7.18;4.97;;;;;;;31.69;nan;63182.69;5031661;28;20206;-71
2023/08/20 08:51:08;;;;;;;7.10;5.32;;;;;;;30.97;nan;63222.41;5030165;28;20610;-70
2023/08/20 08:53:35;;;;;;;8.65;6.13;;;;;;;30.84;nan;63207.44;5031520;28;20224;-70
2023/08/20 08:56:01;;;;;;;7.10;5.07;;;;;;;30.99;nan;63163.41;5031478;28;20181;-70
2023/08/20 08:58:26;;;;;;;7.70;4.82;;;;;;;31.16;nan;63163.94;5031586;28;20178;-70
2023/08/20 09:00:52;;;;;;;6.50;4.68;;;;;;;31.27;nan;63187.16;5031460;28;20579;-70
2023/08/20 09:03:18;;;;;;;7.45;5.63;;;;;;;31.13;nan;63166.34;5035673;28;20723;-70
2023/08/20 09:05:54;;;;;;;9.07;6.15;;;;;;;31.30;nan;63217.63;5035728;28;20635;-70
2023/08/20 09:08:27;;;;;;;8.13;5.20;;;;;;;31.53;nan;63297.00;5035435;28;20329;-70
2023/08/20 09:10:55;;;;;;;7.38;5.10;;;;;;;31.70;nan;63246.72;5035664;28;20241;-70
2023/08/20 09:13:37;;;;;;;7.88;5.00;;;;;;;32.00;nan;63281.84;5035365;28;20388;-70
2023/08/20 09:16:07;;;;;;;7.75;5.05;;;;;;;32.10;nan;63396.00;5034373;28;20645;-70
2023/08/20 09:18:44;;;;;;;6.70;4.53;;;;;;;32.01;nan;63351.19;5035187;28;20174;-70
2023/08/20 09:21:11;;;;;;;7.30;5.00;;;;;;;32.23;nan;63339.00;5035478;28;20190;-70
2023/08/20 09:23:38;;;;;;;7.38;4.93;;;;;;;32.21;nan;63437.81;5035242;28;20171;-70
2023/08/20 09:26:05;;;;;;;7.35;4.63;;;;;;;32.60;nan;63518.78;5035004;28;20213;-71
2023/08/20 09:28:41;;;;;;;6.75;4.85;;;;;;;32.21;nan;63344.63;5035504;28;20163;-70
2023/08/20 09:31:07;;;;;;;6.78;5.13;;;;;;;31.38;nan;63110.56;5035948;28;20182;-70
2023/08/20 09:33:32;;;;;;;8.30;4.78;;;;;;;30.92;nan;63068.78;5034637;28;20554;-70
2023/08/20 09:35:58;;;;;;;6.30;4.75;;;;;;;31.57;nan;63237.59;5034959;28;20194;-70
2023/08/20 09:38:24;;;;;;;7.30;5.43;;;;;;;31.41;nan;63317.50;5034967;28;20155;-70
2023/08/20 09:40:52;;;;;;;7.72;4.75;;;;;;;31.56;nan;63165.66;5035400;28;20243;-70
2023/08/20 09:43:18;;;;;;;7.07;4.80;;;;;;;31.85;nan;63356.56;5035192;28;20167;-70
2023/08/20 09:45:43;;;;;;;8.18;4.80;;;;;;;31.72;nan;63243.75;5035483;28;20209;-71
2023/08/20 09:48:11;;;;;;;5.40;4.50;;;;;;;31.80;nan;63311.13;5035166;28;20254;-71
2023/08/20 09:50:39;;;;;;;7.57;5.03;;;;;;;32.31;nan;63358.81;5034699;28;20565;-71
2023/08/20 09:53:20;;;;;;;5.88;4.35;;;;;;;32.53;nan;63394.19;5034752;28;20191;-70
2023/08/20 09:55:47;;;;;;;5.95;4.55;;;;;;;32.65;nan;63455.72;5035140;28;20163;-70
2023/08/20 09:58:13;;;;;;;6.78;4.85;;;;;;;32.76;nan;63362.50;5034764;28;20170;-71
2023/08/20 10:00:39;;;;;;;8.30;4.80;;;;;;;32.74;nan;63432.28;5033925;28;20182;-69
2023/08/20 10:03:04;;;;;;;7.93;4.88;;;;;;;32.45;nan;63425.25;5034505;28;20635;-70
2023/08/20 10:05:31;;;;;;;7.82;4.93;;;;;;;32.64;nan;63508.13;5033146;28;20183;-70
2023/08/20 10:07:58;;;;;;;6.90;4.85;;;;;;;32.53;nan;63463.03;5034603;28;20222;-70
2023/08/20 10:10:24;;;;;;;6.75;5.18;;;;;;;32.28;nan;63429.44;5034520;28;20179;-70
2023/08/20 10:12:50;;;;;;;8.45;4.57;;;;;;;32.58;nan;63339.66;5034357;28;20234;-71
2023/08/20 10:15:16;;;;;;;7.68;4.68;;;;;;;32.86;nan;63474.69;5033999;28;20263;-71
2023/08/20 10:17:43;;;;;;;6.72;4.72;;;;;;;32.47;nan;63416.97;5034261;28;20560;-69
2023/08/20 10:20:12;;;;;;;7.70;4.30;;;;;;;32.19;nan;63297.31;5034157;28;20657;-69
2023/08/20 10:22:39;;;;;;;5.97;4.55;;;;;;;32.41;nan;63410.63;5034541;28;20174;-69
2023/08/20 10:25:07;;;;;;;6.50;4.63;;;;;;;32.38;nan;63372.16;5033850;28;20175;-70
2023/08/20 10:27:36;;;;;;;5.90;4.35;;;;;;;32.60;nan;63476.44;5034640;28;20241;-69
2023/08/20 10:30:11;;;;;;;6.55;4.40;;;;;;;32.64;nan;63391.03;5034357;28;20185;-70
2023/08/20 10:32:48;;;;;;;5.25;3.80;;;;;;;33.11;nan;63534.81;5033957;28;20192;-70
2023/08/20 10:35:24;;;;;;;5.57;4.07;;;;;;;33.26;nan;63693.22;5034059;28;20177;-70
2023/08/20 10:38:16;;;;;;;5.80;4.03;;;;;;;33.40;nan;63568.34;5034548;28;20591;-70
2023/08/20 10:40:51;;;;;;;5.93;4.15;;;;;;;33.04;nan;63410.69;5033777;28;20237;-70
2023/08/20 10:43:25;;;;;;;5.65;3.97;;;;;;;33.42;nan;63548.88;5033471;28;20166;-69
2023/08/20 10:46:23;;;;;;;6.82;4.35;;;;;;;33.29;nan;63588.00;5034097;28;20177;-69
2023/08/20 10:48:56;;;;;;;6.45;4.72;;;;;;;33.19;nan;63485.75;5033784;28;20206;-70
2023/08/20 10:51:27;;;;;;;6.78;4.28;;;;;;;33.52;nan;63523.91;5033637;28;20202;-70
2023/08/20 10:54:04;;;;;;;9.15;4.60;;;;;;;33.65;nan;63554.81;5033700;28;20226;-70
2023/08/20 10:56:38;;;;;;;6.05;4.30;;;;;;;33.75;nan;63650.72;5033426;28;20578;-69
2023/08/20 10:59:09;;;;;;;5.35;4.10;;;;;;;33.76;nan;63773.88;5033101;28;20560;-71
2023/08/20 11:01:35;;;;;;;6.57;4.47;;;;;;;33.89;nan;63661.63;5033324;28;20545;-70
2023/08/20 11:04:06;;;;;;;7.57;4.07;;;;;;;33.95;nan;63631.41;5033192;28;20170;-69
2023/08/20 11:06:34;;;;;;;7.63;3.70;;;;;;;33.55;nan;63622.25;5033887;28;20248;-69
2023/08/20 11:09:00;;;;;;;8.55;4.00;;;;;;;30.64;nan;63860.72;5033669;28;20237;-69
2023/08/20 11:11:26;;;;;;;5.47;4.10;;;;;;;33.89;nan;63645.69;5033569;28;20171;-70
2023/08/20 11:13:51;;;;;;;5.70;4.30;;;;;;;33.97;nan;63739.88;5033373;28;20206;-70
2023/08/20 11:16:17;;;;;;;5.28;3.90;;;;;;;34.29;nan;63717.97;5032824;28;20650;-70
2023/08/20 11:18:43;;;;;;;6.45;4.57;;;;;;;34.47;nan;63770.09;5033203;28;20287;-70
2023/08/20 11:21:09;;;;;;;5.32;4.20;;;;;;;34.46;nan;63710.53;5033151;28;20217;-70
2023/08/20 11:23:35;;;;;;;5.28;3.80;;;;;;;34.34;nan;63733.81;5033094;28;20183;-70
2023/08/20 11:26:01;;;;;;;5.80;4.13;;;;;;;34.06;nan;63702.50;5032284;28;20697;-71
2023/08/20 11:28:28;;;;;;;5.18;3.72;;;;;;;33.92;nan;63653.88;5033398;28;20273;-71
2023/08/20 11:30:55;;;;;;;7.78;4.78;;;;;;;33.84;nan;63565.63;5032530;28;20556;-70
2023/08/20 11:33:21;;;;;;;6.45;4.88;;;;;;;34.16;nan;63785.78;5032561;28;20206;-70
2023/08/20 11:35:47;;;;;;;6.63;4.72;;;;;;;34.28;nan;63674.34;5032729;28;20167;-70
2023/08/20 11:38:13;;;;;;;8.35;4.78;;;;;;;34.47;nan;63825.88;5032841;28;20237;-70
2023/08/20 11:40:38;;;;;;;7.38;4.63;;;;;;;34.35;nan;63819.94;5032691;28;20200;-70
2023/08/20 11:43:04;;;;;;;6.63;4.47;;;;;;;34.59;nan;63829.75;5032401;28;20183;-71